CST,Max TemperatureF,Mean TemperatureF,Min TemperatureF,Max Dew PointF,MeanDew PointF,Min DewpointF,Max Humidity, Mean Humidity, Min Humidity, Max Sea Level PressureIn, Mean Sea Level PressureIn, Min Sea Level PressureIn, Max VisibilityMiles, Mean VisibilityMiles, Min VisibilityMiles, Max Wind SpeedMPH, Mean Wind SpeedMPH, Max Gust SpeedMPH,PrecipitationIn, CloudCover, Events, WindDirDegrees
2013-1-1,15,4,-7,2,-2,-10,87,69,51,30.31,30.24,30.13,10,10,9,8,3,17,0.00,1,,309
2013-1-2,23,18,12,16,10,4,80,66,52,30.19,30.12,30.04,10,9,7,14,6,17,T,6,Snow,206
2013-1-3,26,19,11,19,16,5,84,79,73,30.25,30.15,30.04,10,7,4,13,6,24,T,6,Snow,282
2013-1-4,31,21,11,18,14,5,88,71,53,30.22,30.17,30.11,10,10,10,13,6,22,0.00,0,,240
2013-1-5,36,23,10,31,23,10,96,83,69,30.22,30.03,29.85,10,8,4,16,7,21,T,4,Snow,204
2013-1-6,35,26,17,28,18,12,84,77,69,30.30,30.10,29.86,10,8,6,15,6,21,T,5,Snow,288
2013-1-7,36,25,14,24,19,10,88,72,56,30.29,30.13,30.03,10,10,9,20,8,29,0.00,0,,198
2013-1-8,39,28,16,30,25,16,96,83,70,30.11,30.04,29.95,10,7,2,18,9,23,0.00,1,,182
2013-1-9,41,31,21,30,24,19,92,71,50,30.48,30.25,29.94,10,10,10,14,6,24,0.00,0,,250
2013-1-10,38,27,15,34,26,12,92,78,64,30.51,30.23,29.89,10,8,3,37,5,92,0.24,4,Rain,123
2013-1-11,48,41,34,43,38,34,100,93,86,29.83,29.69,29.60,10,2,0,17,7,21,0.04,7,Fog-Rain,173
2013-1-12,48,35,22,42,26,15,86,75,63,30.04,29.85,29.61,10,10,8,17,9,24,T,4,Snow,239
2013-1-13,22,17,12,13,8,3,77,69,61,30.25,30.06,29.92,10,10,9,16,9,23,T,7,Snow,315
2013-1-14,26,17,8,11,6,2,80,63,46,30.47,30.42,30.28,10,10,10,12,4,16,0.00,0,,264
2013-1-15,29,20,10,13,11,7,92,69,46,30.44,30.31,30.09,10,10,10,14,5,20,0.00,0,,200
2013-1-16,34,27,19,28,20,9,82,70,57,30.09,29.93,29.77,10,10,9,16,6,26,T,5,Snow,244
2013-1-17,27,19,11,17,7,2,84,61,38,30.43,30.34,30.14,10,10,10,15,6,21,0.00,0,,313
2013-1-18,42,28,13,31,22,8,80,69,57,30.43,30.07,29.83,10,10,9,24,10,32,T,3,Snow,191
2013-1-19,45,31,16,32,25,3,82,60,38,29.99,29.80,29.67,10,10,10,31,10,48,T,4,,240
2013-1-20,16,12,7,7,-2,-4,69,56,42,30.35,30.24,30.00,10,10,2,23,8,33,T,2,Snow,304
2013-1-21,11,4,-3,1,-8,-13,71,60,49,30.33,30.21,30.11,10,9,2,18,10,28,T,4,Snow,302
2013-1-22,8,1,-7,-4,-9,-14,83,67,50,30.41,30.37,30.27,10,10,9,14,5,18,T,2,Snow,303
2013-1-23,19,12,4,14,5,-7,80,68,55,30.47,30.20,30.06,10,6,1,25,8,35,0.02,7,Snow,289
2013-1-24,17,8,-1,8,-2,-9,72,65,58,30.70,30.56,30.36,10,10,10,18,7,24,0.00,3,,41
2013-1-25,26,20,14,16,11,5,80,65,50,30.32,30.10,29.93,10,7,2,16,9,31,0.04,7,Snow,237
2013-1-26,24,16,7,12,6,2,80,61,42,30.43,30.36,30.26,10,10,10,14,4,25,0.00,2,,216
2013-1-27,34,29,23,33,24,12,100,80,60,30.35,30.07,29.86,10,5,0,20,11,25,0.17,8,Fog-Rain-Snow,147
2013-1-28,41,37,33,36,33,30,100,88,76,29.95,29.85,29.76,10,5,0,37,4,79,0.07,7,Fog-Rain,144
2013-1-29,54,45,35,52,42,33,100,92,83,29.77,29.59,29.50,10,3,0,17,7,24,1.84,8,Fog-Rain-Thunderstorm,181
2013-1-30,35,26,16,33,25,8,96,82,67,29.65,29.41,29.33,9,3,0,23,13,29,0.43,8,Fog-Rain-Snow,347
2013-1-31,16,9,1,9,3,-6,84,73,61,30.19,29.89,29.62,10,5,0,17,10,28,0.02,7,Snow,295